< < Back
Terminal Aerodrome Forecast


Current Version              Previous Versions:   1  2  3  4  5  6  7  8  9  

Terminal Aerodrome Forecast

933
FTUS42 KMLB 030538
TAFDAB
TAF
KDAB 030538Z 0306/0406 21003KT P6SM SCT250
     FM031300 26005KT P6SM FEW030 SCT250
     FM031700 09007KT P6SM VCTS SCT035CB BKN150
     FM032100 14006KT P6SM SCT030 BKN250=



Latest METAR

362
SAUS80 KWBC 030600 CCA
MTRDAB
METAR KDAB 030553Z 18003KT 10SM FEW250 22/21 A3010 RMK AO2 SLP192
T02220211 10244 20222 58005


USA.gov is the U.S. government's official web portal to all federal, state and local government web resources and services.